Terminal Aerodrome Forecast
Issued by NWS Twin Cities, MN

Home | Current Version | Previous Version | Text Only | Print | Product List | Glossary On
Versions: 1 2 3 4 5 6 7 8 9 10 11 12 13 14 15 16 17
000
FTUS43 KMPX 290520
TAFEAU
TAF
KEAU 290520Z 2906/3006 03005KT P6SM BKN040
     FM290900 02004KT P6SM SCT040
      TEMPO 2909/2912 4SM BR
     FM291400 04007KT P6SM SCT040=

USA.gov is the U.S. government's official web portal to all federal, state and local government web resources and services.